Columbus, Ohio
Traffic Map
Current Weather Conditions
Columbus, Ohio
Few Clouds
Few Clouds
23°
Feels Like: 23°
Wind Chill: 23° Ceiling: Unl
Heat Index: 23° Visibility: 9mi
Dew Point: 17° Wind: 6mph
Humidity: 68% Direction: ° ()
Pressure: 30.09in Gusts: 0mph
Raw Report DataKCMH 311451Z VRB05KT 9SM FEW013 23/17 A3009 RMK AO2 SLP185 T02280167 53004
Traffic Incident Summary
Active as of:
Severity:
Category:
InformationThere was an issue retrieving the traffic information for this location. Please try a different location or try again shortly.
Advertisements
Track Severe Weather on mobile